Hugo Santa Cruz

Scout - Olimpia
11 Mär 2027
Donnerstag
Verarbeitung

Persönlichkeit

Anpassungsfähigkeit (9) Ehrgeiz (7) Kontroverse (5) Loyalität (19) Druck (18) Professionalität (16) Fairness (11) Temperament (12)

Profil

Trainerstil Demokratisch
Lizenz Nationale A
Entschlossenheit 7
Menschenführung 7
Motivation 5
Disziplin 7
Arbeitszufriedenheit
100%
Ermüdung
0%
Rolle Scout
Gehalt 20.8K p/W
Vertrag 14.03.2029

Leistung

Verhalten Gut
Trainingseffektivität
36%
Spielerentwicklung
55%
Verletzungsprävention
65%
Taktische Umsetzung
25%

Letzte Ereignisse

Nahm an einer Scouting-Besprechung teil 14T her
Nahm an einer Scouting-Besprechung teil 21T her
Nahm an einer Scouting-Besprechung teil 28T her
Nahm an einer Scouting-Besprechung teil 35T her
Nahm an einer Scouting-Besprechung teil 42T her
Nahm an einer Scouting-Besprechung teil 49T her
Nimmt an Fortbildung teil 49T her
Nimmt an Fortbildung teil 49T her

Aktuell beobachtet

117
Spieler Verein Status Fähigkeit Vertrauen Beobachtet Zuletzt beobachtet Letzte Stimme
Marcelo Fernández Libertad Verloren 111 / 118 83% 1 01.12.2026 Befürworten
Veljko Birmančević Ferencvaros Verloren 134 / 121 40% 1 30.11.2026 -
Everton Bala Levski Aktiv 127 / 130 40% 1 30.11.2026 -
Williams Manyama SuperSport United Aktiv 114 / 122 40% 2 29.11.2026 -
Mikkel Damsgaard Brentford Aktiv 144 / 147 40% 1 29.11.2026 -
Christian Krasnodar Aktiv 134 / 123 40% 3 28.11.2026 -
Lucas Arce CFR Cluj Aktiv 119 / 118 40% 3 28.11.2026 -
Ben Sheaf Wrexham Aktiv 129 / 135 40% 1 28.11.2026 -
Franco Zapiola Platense Aktiv 127 / 118 40% 3 27.11.2026 -
Tiago Palacios Estudiantes Aktiv 129 / 133 40% 1 27.11.2026 -
Isaiah Jones Luton Town Aktiv 122 / 130 40% 1 26.11.2026 -
Derensili Sanches Fernandes Huddersfield Town Aktiv 119 / 119 40% 1 26.11.2026 -
Rubén Duarte Legia Aktiv 135 / 128 40% 6 25.11.2026 -
Israel Reyes CSKA Moscow Aktiv 139 / 138 40% 3 24.11.2026 -
Dara O'Shea Ipswich Town Aktiv 142 / 131 40% 1 24.11.2026 Mehr Infos nötig
Agustín Cardozo Lanús Aktiv 125 / 129 40% 1 24.11.2026 -
Finn Azaz Southampton Aktiv 125 / 140 40% 1 24.11.2026 -
Oston O'runov Persepolis Aktiv 118 / 119 40% 1 24.11.2026 -
Ryan Sessegnon Fulham Aktiv 149 / 145 40% 1 22.11.2026 -
Tomás O'Connor Gimnasia y Esgrima Verloren 121 / 121 40% 1 22.11.2026 -
Rodrigo Herrera Newell's Old Boys Aktiv 119 / 113 40% 2 18.11.2026 -
Adrien Truffert Bournemouth Aktiv 155 / 160 40% 1 18.11.2026 -
Petar Stanić Ludogorets Aktiv 129 / 146 40% 1 18.11.2026 -
Nahuel Banegas Tigre Aktiv 125 / 129 40% 1 18.11.2026 -
Lucas Carrizo Newell's Old Boys Aktiv 129 / 120 40% 1 18.11.2026 -
Benjamin White Arsenal Aktiv 156 / 158 40% 1 16.11.2026 -
Emanuel Coronel Rosario Central Aktiv 130 / 132 40% 1 16.11.2026 -
Matías Galarza Talleres Aktiv 125 / 127 40% 3 15.11.2026 -
Siro Rosané Estudiantes Aktiv 118 / 123 40% 1 15.11.2026 -
Sergio Arribas Almería Aktiv 131 / 149 40% 2 14.11.2026 -
Sayfallah Ltaief Cracovia Aktiv 120 / 109 40% 1 14.11.2026 -
Keagan Mothiba SuperSport United Aktiv 112 / 117 40% 1 14.11.2026 -
Mohammad Mehdi Mohebi Persepolis Aktiv 112 / 128 40% 2 12.11.2026 -
Ignacio Rodríguez Racing Club Aktiv 122 / 131 40% 2 12.11.2026 -
Alex Luna Instituto Aktiv 127 / 123 40% 1 12.11.2026 -
Leandro Lozano Boca Juniors Aktiv 124 / 127 40% 2 11.11.2026 -
Tomás Silva Platense Aktiv 128 / 134 40% 1 11.11.2026 -
Nicolás Tripichio San Lorenzo Aktiv 130 / 132 40% 1 08.11.2026 -
Sebastián Valdez Independiente Aktiv 125 / 125 40% 1 02.11.2026 -
Hernán de la Fuente Instituto Aktiv 122 / 124 40% 1 02.11.2026 -
Adrián Sánchez Belgrano Aktiv 124 / 118 40% 1 01.11.2026 -
Emanuel Mammana Vélez Aktiv 129 / 127 40% 1 01.11.2026 Mehr Infos nötig
Joaquín García Vélez Aktiv 124 / 122 40% 1 01.11.2026 -
Facundo Zabala Independiente Aktiv 121 / 130 40% 1 29.10.2026 -
Aarón Molinas Defensa y Justicia Aktiv 125 / 130 40% 1 29.10.2026 -
Matías Pérez Racing Club Aktiv 129 / 123 40% 1 28.10.2026 -
Franco Ibarra Rosario Central Aktiv 133 / 126 40% 1 28.10.2026 -
Eric Meza Estudiantes Aktiv 122 / 123 40% 1 28.10.2026 -
Felipe Peña Biafore Lanús Aktiv 124 / 123 40% 2 26.10.2026 Mehr Infos nötig
Sebastián Medina Tigre Aktiv 115 / 123 40% 1 26.10.2026 -
Franco Díaz Temperley Aktiv 121 / 118 40% 1 26.10.2026 -
Iñaki Larthirigoyen San Telmo Aktiv 114 / 117 40% 1 26.10.2026 -
Mateo Mendoza Godoy Cruz Aktiv 122 / 134 40% 1 24.10.2026 -
Sergio Reguilón Inter Miami CF Aktiv 137 / 146 40% 1 24.10.2026 -
Bénie Traoré New York City Aktiv 131 / 131 40% 2 23.10.2026 -
Erison Kawasaki Frontale Aktiv 138 / 141 40% 2 22.10.2026 -
Nino Zenit Aktiv 143 / 134 40% 2 21.10.2026 -
Kimito Nono Sanfrecce Hiroshima Aktiv 119 / 138 40% 1 21.10.2026 -
David Miculescu FCSB Aktiv 122 / 129 40% 1 20.10.2026 -
Mandla Erasmus SuperSport United Aktiv 120 / 115 40% 1 19.10.2026 -
Nathan-Dylan Saliba Villarreal Aktiv 116 / 133 40% 1 19.10.2026 -
Jordan Lotomba Bloemfontein Celtic Aktiv 124 / 128 40% 1 18.10.2026 -
Nicolás Fernández Mercau Shakhtar Aktiv 131 / 132 40% 1 18.10.2026 -
Miguel Navarro Colorado Rapids Aktiv 116 / 120 40% 1 17.10.2026 -
Obinna Nwobodo FC Cincinnati Aktiv 125 / 131 40% 1 17.10.2026 -
Antonio Galeano Remo Stars Aktiv 122 / 124 40% 2 15.10.2026 -
Jens Petter Hauge Bodo/Glimt Aktiv 135 / 139 40% 1 15.10.2026 -
Facundo Mura Inter Miami CF Aktiv 120 / 131 40% 1 14.10.2026 -
Marcelo Saracchi Houston Dynamo Aktiv 125 / 127 40% 3 13.10.2026 -
Roger Fernandes Al-Ittihad Aktiv 126 / 145 40% 1 13.10.2026 -
André Luiz Sporting Kansas City Aktiv 128 / 123 40% 1 13.10.2026 -
Caio Vidal Ludogorets Aktiv 125 / 138 40% 1 11.10.2026 -
Tadeo Allende Inter Miami CF Aktiv 122 / 118 40% 2 10.10.2026 -
Telasco Segovia Inter Miami CF Aktiv 135 / 123 40% 1 10.10.2026 -
Rasmus Kristensen FC Midtjylland Aktiv 148 / 142 40% 1 07.10.2026 -
Shaq Moore FC Dallas Aktiv 117 / 125 40% 1 07.10.2026 -
Liel Abada Charlotte Football Club Aktiv 136 / 143 40% 2 06.10.2026 -
James Sands New York City Aktiv 131 / 137 40% 1 06.10.2026 -
Bradley Tau SuperSport United Aktiv 121 / 132 40% 2 05.10.2026 -
Anton Salétros Chicago Fire Aktiv 125 / 116 40% 1 05.10.2026 -
Aubrey Modiba Mamelodi Sundowns Aktiv 129 / 132 40% 1 05.10.2026 -
Gustavo Mantuan Zenit Aktiv 136 / 139 40% 1 04.10.2026 -
João Gomes Aston Villa Aktiv 136 / 126 40% 1 04.10.2026 -
Aaron Herrera Charlotte Football Club Aktiv 123 / 131 40% 1 02.10.2026 -
Emir Karić Sporting Kansas City Aktiv 119 / 123 40% 1 02.10.2026 -
Martín Ojeda Orlando City Aktiv 131 / 134 40% 1 02.10.2026 -
Ralph Orquin Seattle Sounders Aktiv 115 / 114 40% 2 29.09.2026 -
Sead Hakšabanović Malmo FF Aktiv 119 / 118 40% 1 29.09.2026 -
Rob Holding Colorado Rapids Aktiv 127 / 113 40% 2 28.09.2026 -
Bryan Ramírez FC Cincinnati Aktiv 136 / 143 40% 1 28.09.2026 -
Niklas Dorsch Toronto FC Aktiv 121 / 138 40% 2 27.09.2026 -
Conrad Wallem Austria Wien Aktiv 122 / 132 40% 2 27.09.2026 -
Matías Pellegrini Vélez Aktiv 116 / 118 40% 1 26.09.2026 -
Griffin Yow New England Revolution Aktiv 130 / 140 40% 1 26.09.2026 -
Mayckel Lahdo Malmo FF Aktiv 122 / 118 40% 1 26.09.2026 -
Lucas Sanabria LA Galaxy Aktiv 127 / 128 40% 2 23.09.2026 -
Andrés Cubas Vancouver Whitecaps Aktiv 117 / 138 40% 1 23.09.2026 -
Joao Ortiz Portland Timbers Aktiv 126 / 137 40% 1 22.09.2026 -
Patrick Berg Bodo/Glimt Aktiv 140 / 145 40% 1 22.09.2026 -
David Brekalo Orlando City Aktiv 125 / 120 40% 1 22.09.2026 -
Lasse Berg Johnsen Sporting Kansas City Aktiv 131 / 136 40% 1 21.09.2026 -
Duncan McGuire Houston Dynamo Aktiv 125 / 111 40% 1 15.09.2026 -
Esequiel Barco Spartak Moscow Aktiv 134 / 142 40% 1 15.09.2026 -
Harry Toffolo Charlotte Football Club Aktiv 130 / 108 40% 1 14.09.2026 -
Malte Amundsen Columbus Crew Aktiv 116 / 119 40% 1 14.09.2026 -
Alhassan Yusuf New England Revolution Aktiv 123 / 111 40% 1 11.09.2026 -
Hassani Dotson Seattle Sounders Aktiv 127 / 127 40% 1 11.09.2026 -
Nectar Triantis Minnesota United FC Aktiv 124 / 138 40% 1 09.09.2026 -
Rodrigo Huescas FC Copenhagen Aktiv 133 / 135 40% 1 08.09.2026 -
Juan Escobar Melgar Aktiv 127 / 127 40% 1 08.09.2026 -
Sergej Milinković-Savić Al-Hilal Aktiv 149 / 142 40% 1 08.09.2026 -
Keaton Parks Helsingborg Aktiv 130 / 124 40% 1 07.09.2026 -
Matías Flores River Plate Aktiv 98 / 101 30% 1 / 1m 19.08.2026 -
Aldo Olmedo Aktiv 98 / 98 30% 1 / 1m 19.08.2026 -
Khuliso Mudau Mamelodi Sundowns Aktiv 133 / 121 40% 1 04.08.2026 -
Musa Barrow Al-Khaleej Aktiv 133 / 148 40% 1 01.08.2026 -
Maurits Kjærgaard Red Bull Salzburg Aktiv 119 / 144 40% 1 01.08.2026 -